createdAt,value
2022-12-03T00:01:24.157Z,12.80
2022-12-03T00:03:51.710Z,11.45
2022-12-03T00:06:20.725Z,12.02
2022-12-03T00:08:48.680Z,12.73
2022-12-03T00:11:16.585Z,12.18
2022-12-03T00:13:44.010Z,12.95
2022-12-03T00:16:11.479Z,12.30
2022-12-03T00:18:38.932Z,11.85
2022-12-03T00:21:07.214Z,12.68
2022-12-03T00:23:41.806Z,12.60
2022-12-03T00:26:10.084Z,11.30
2022-12-03T00:28:37.510Z,12.15
2022-12-03T00:31:05.282Z,11.93
2022-12-03T00:33:32.762Z,11.55
2022-12-03T00:36:00.294Z,10.95
2022-12-03T00:38:27.769Z,13.25
2022-12-03T00:40:56.685Z,12.60
2022-12-03T00:43:24.208Z,11.25
2022-12-03T00:45:52.555Z,11.73
2022-12-03T00:48:19.978Z,12.57
2022-12-03T00:50:47.416Z,12.38
2022-12-03T00:53:14.868Z,12.55
2022-12-03T00:55:42.299Z,11.95
2022-12-03T00:58:11.761Z,11.73
2022-12-03T01:00:39.161Z,11.07
2022-12-03T01:03:06.666Z,12.40
2022-12-03T01:05:34.148Z,12.40
2022-12-03T01:08:01.687Z,12.77
2022-12-03T01:10:29.962Z,12.27
2022-12-03T01:12:57.393Z,12.93
2022-12-03T01:15:26.337Z,13.13
2022-12-03T01:17:53.942Z,11.45
2022-12-03T01:20:21.820Z,12.55
2022-12-03T01:22:49.343Z,12.05
2022-12-03T01:25:16.900Z,13.65
2022-12-03T01:27:44.381Z,12.35
2022-12-03T01:30:13.282Z,12.35
2022-12-03T01:32:42.200Z,11.68
2022-12-03T01:35:09.781Z,11.98
2022-12-03T01:37:37.833Z,11.52
2022-12-03T01:40:08.035Z,11.93
2022-12-03T01:42:40.913Z,11.70
2022-12-03T01:45:14.186Z,11.40
2022-12-03T01:47:43.170Z,11.30
2022-12-03T01:50:21.002Z,12.32
2022-12-03T01:52:48.682Z,11.32
2022-12-03T01:55:20.935Z,12.07
2022-12-03T01:57:51.549Z,11.60
2022-12-03T02:00:21.105Z,12.02
2022-12-03T02:02:53.481Z,11.25
2022-12-03T02:05:22.926Z,10.98
2022-12-03T02:07:50.834Z,11.35
2022-12-03T02:10:22.083Z,11.23
2022-12-03T02:12:54.136Z,11.02
2022-12-03T02:15:22.235Z,11.82
2022-12-03T02:17:51.477Z,10.85
2022-12-03T02:20:19.447Z,12.43
2022-12-03T02:22:54.037Z,11.13
2022-12-03T02:25:24.945Z,11.35
2022-12-03T02:27:54.769Z,10.88
2022-12-03T02:30:26.513Z,11.77
2022-12-03T02:32:54.825Z,11.30
2022-12-03T02:35:24.354Z,11.02
2022-12-03T02:37:57.303Z,11.50
2022-12-03T02:40:29.211Z,11.00
2022-12-03T02:43:00.009Z,11.55
2022-12-03T02:45:31.051Z,11.00
2022-12-03T02:48:01.553Z,10.75
2022-12-03T02:50:32.856Z,10.77
2022-12-03T02:53:02.828Z,11.18
2022-12-03T02:55:37.122Z,11.45
2022-12-03T02:58:06.007Z,11.10
2022-12-03T03:00:33.877Z,12.80
2022-12-03T03:03:03.358Z,11.57
2022-12-03T03:05:31.135Z,11.73
2022-12-03T03:08:00.105Z,11.63
2022-12-03T03:10:29.346Z,11.88
2022-12-03T03:12:59.118Z,10.48
2022-12-03T03:15:26.653Z,9.85
2022-12-03T03:17:54.206Z,12.98
2022-12-03T03:20:21.877Z,11.85
2022-12-03T03:23:14.825Z,12.35
2022-12-03T03:25:44.686Z,14.48
2022-12-03T03:28:15.063Z,13.43
2022-12-03T03:30:44.066Z,14.70
2022-12-03T03:33:13.284Z,13.68
2022-12-03T03:35:40.975Z,13.70
2022-12-03T03:38:10.040Z,12.88
2022-12-03T03:40:38.602Z,11.93
2022-12-03T03:43:07.183Z,11.90
2022-12-03T03:45:36.667Z,12.77
2022-12-03T03:48:04.522Z,11.23
2022-12-03T03:50:32.589Z,12.23
2022-12-03T03:53:02.964Z,12.10
2022-12-03T03:55:31.337Z,12.10
2022-12-03T03:57:59.091Z,12.82
2022-12-03T04:00:26.745Z,11.52
2022-12-03T04:02:56.190Z,10.77
2022-12-03T04:05:25.021Z,12.98
2022-12-03T04:07:52.767Z,11.20
2022-12-03T04:10:20.217Z,11.52
2022-12-03T04:12:47.639Z,12.40
2022-12-03T04:15:15.310Z,12.20
2022-12-03T04:17:42.752Z,12.88
2022-12-03T04:20:12.994Z,13.02
2022-12-03T04:22:41.079Z,12.35
2022-12-03T04:25:10.303Z,12.70
2022-12-03T04:27:37.747Z,11.02
2022-12-03T04:30:06.239Z,12.32
2022-12-03T04:32:33.777Z,12.32
2022-12-03T04:35:02.051Z,12.63
2022-12-03T04:37:31.038Z,12.10
2022-12-03T04:39:58.687Z,12.18
2022-12-03T04:42:26.417Z,12.93
2022-12-03T04:44:54.212Z,11.93
2022-12-03T04:47:22.611Z,12.18
2022-12-03T04:49:51.701Z,12.50
2022-12-03T04:52:20.708Z,12.18
2022-12-03T04:54:49.871Z,12.15
2022-12-03T04:57:17.612Z,12.55
2022-12-03T04:59:45.080Z,13.80
2022-12-03T05:02:13.034Z,13.85
2022-12-03T05:04:40.617Z,13.02
2022-12-03T05:07:08.205Z,13.07
2022-12-03T05:09:36.009Z,13.43
2022-12-03T05:12:05.576Z,14.45
2022-12-03T05:14:32.998Z,13.32
2022-12-03T05:17:01.080Z,13.18
2022-12-03T05:19:28.691Z,12.65
2022-12-03T05:21:57.382Z,13.60
2022-12-03T05:24:25.229Z,14.05
2022-12-03T05:26:53.432Z,17.02
2022-12-03T05:29:22.401Z,15.10
2022-12-03T05:31:50.575Z,17.20
2022-12-03T05:34:18.167Z,16.75
2022-12-03T05:36:45.706Z,14.27
2022-12-03T05:39:13.568Z,14.82
2022-12-03T05:41:41.246Z,15.48
2022-12-03T05:44:08.733Z,15.63
2022-12-03T05:46:38.065Z,16.00
2022-12-03T05:49:05.803Z,15.20
2022-12-03T05:51:33.326Z,15.65
2022-12-03T05:54:01.090Z,15.32
2022-12-03T05:56:29.142Z,17.25
2022-12-03T05:58:56.752Z,17.55
2022-12-03T06:01:24.524Z,17.10
2022-12-03T06:03:54.225Z,15.10
2022-12-03T06:06:22.218Z,16.60
2022-12-03T06:08:50.854Z,16.02
2022-12-03T06:11:18.266Z,17.92
2022-12-03T06:13:45.748Z,16.63
2022-12-03T06:16:13.328Z,17.67
2022-12-03T06:18:40.807Z,16.67
2022-12-03T06:21:09.712Z,15.05
2022-12-03T06:23:37.256Z,18.65
2022-12-03T06:26:04.868Z,16.25
2022-12-03T06:28:32.294Z,15.52
2022-12-03T06:31:00.474Z,15.15
2022-12-03T06:33:27.998Z,15.63
2022-12-03T06:35:55.488Z,17.08
2022-12-03T06:38:24.533Z,18.27
2022-12-03T06:40:51.959Z,16.13
2022-12-03T06:43:19.476Z,16.42
2022-12-03T06:45:48.048Z,17.50
2022-12-03T06:48:15.961Z,16.20
2022-12-03T06:50:43.496Z,14.75
2022-12-03T06:53:11.343Z,15.77
2022-12-03T06:55:40.526Z,16.73
2022-12-03T06:58:08.120Z,16.17
2022-12-03T07:00:36.292Z,17.58
2022-12-03T07:03:03.879Z,15.13
2022-12-03T07:05:31.634Z,15.18
2022-12-03T07:07:59.682Z,14.43
2022-12-03T07:10:27.557Z,15.13
2022-12-03T07:12:56.538Z,15.30
2022-12-03T07:15:24.166Z,15.48
2022-12-03T07:17:51.761Z,12.68
2022-12-03T07:20:19.962Z,16.10
2022-12-03T07:22:47.919Z,14.18
2022-12-03T07:25:21.253Z,14.90
2022-12-03T07:27:51.307Z,15.25
2022-12-03T07:30:20.826Z,13.52
2022-12-03T07:32:48.366Z,14.95
2022-12-03T07:35:16.278Z,15.95
2022-12-03T07:37:43.831Z,14.52
2022-12-03T07:40:12.693Z,15.27
2022-12-03T07:42:40.577Z,17.83
2022-12-03T07:45:10.074Z,16.67
2022-12-03T07:47:39.092Z,16.90
2022-12-03T07:50:08.366Z,15.65
2022-12-03T07:52:36.049Z,18.08
2022-12-03T07:55:03.804Z,16.77
2022-12-03T07:57:31.445Z,16.00
2022-12-03T07:59:59.535Z,15.15
2022-12-03T08:02:27.155Z,17.02
2022-12-03T08:04:56.454Z,17.40
2022-12-03T08:07:24.395Z,16.02
2022-12-03T08:09:52.072Z,15.65
2022-12-03T08:12:24.765Z,16.80
2022-12-03T08:14:52.989Z,16.80
2022-12-03T08:17:20.838Z,16.55
2022-12-03T08:19:50.377Z,12.70
2022-12-03T08:22:19.514Z,16.27
2022-12-03T08:24:47.062Z,13.52
2022-12-03T08:27:18.263Z,14.88
2022-12-03T08:29:46.398Z,13.52
2022-12-03T08:32:14.231Z,15.80
2022-12-03T08:34:43.734Z,15.20
2022-12-03T08:37:16.588Z,16.38
2022-12-03T08:39:47.653Z,16.17
2022-12-03T08:42:19.282Z,15.25
2022-12-03T08:44:46.913Z,15.10
2022-12-03T08:47:19.397Z,14.15
2022-12-03T08:49:54.565Z,15.35
2022-12-03T08:52:26.955Z,15.52
2022-12-03T08:54:56.408Z,13.68
2022-12-03T08:59:58.289Z,14.63
2022-12-03T09:02:31.260Z,15.02
2022-12-03T09:05:09.205Z,14.63
2022-12-03T09:07:37.298Z,14.85
2022-12-03T09:10:08.098Z,15.02
2022-12-03T09:12:35.593Z,14.75
2022-12-03T09:15:03.106Z,14.88
2022-12-03T09:17:30.773Z,14.82
2022-12-03T09:19:58.549Z,13.88
2022-12-03T09:22:27.160Z,14.27
2022-12-03T09:24:55.336Z,14.40
2022-12-03T09:27:25.510Z,14.97
2022-12-03T09:29:53.483Z,14.50
2022-12-03T09:32:21.044Z,14.32
2022-12-03T09:34:49.263Z,12.50
2022-12-03T09:37:17.253Z,15.50
2022-12-03T09:39:44.790Z,14.20
2022-12-03T09:42:12.469Z,12.80
2022-12-03T09:44:41.720Z,12.60
2022-12-03T09:47:09.498Z,14.15
2022-12-03T09:49:38.496Z,12.68
2022-12-03T09:52:06.504Z,12.82
2022-12-03T09:54:34.533Z,12.57
2022-12-03T09:57:04.470Z,12.48
2022-12-03T09:59:34.185Z,12.88
2022-12-03T10:02:09.912Z,12.95
2022-12-03T10:04:37.780Z,12.43
2022-12-03T10:07:05.440Z,12.02
2022-12-03T10:09:33.057Z,12.00
2022-12-03T10:12:01.653Z,11.88
2022-12-03T10:14:30.652Z,13.93
2022-12-03T10:16:58.832Z,13.98
2022-12-03T10:19:31.421Z,12.95
2022-12-03T10:21:59.157Z,12.82
2022-12-03T10:24:28.519Z,12.32
2022-12-03T10:26:57.780Z,13.23
2022-12-03T10:29:33.279Z,12.00
2022-12-03T10:32:04.621Z,11.73
2022-12-03T10:34:34.791Z,11.10
2022-12-03T10:37:15.060Z,11.80
2022-12-03T10:40:00.925Z,11.32
2022-12-03T10:42:30.250Z,11.55
2022-12-03T10:45:12.256Z,10.95
2022-12-03T10:47:39.900Z,11.18
2022-12-03T10:50:17.198Z,11.05
2022-12-03T10:52:45.370Z,11.05
2022-12-03T10:55:15.066Z,10.88
2022-12-03T10:57:46.257Z,10.38
2022-12-03T11:00:16.942Z,10.50
2022-12-03T11:02:44.748Z,10.75
2022-12-03T11:05:16.762Z,10.77
2022-12-03T11:07:45.261Z,10.48
2022-12-03T11:10:18.282Z,11.95
2022-12-03T11:13:18.658Z,11.43
2022-12-03T11:15:46.636Z,10.77
2022-12-03T11:18:57.085Z,10.75
2022-12-03T11:21:26.476Z,10.18
2022-12-03T11:24:19.852Z,11.05
2022-12-03T11:27:07.725Z,10.95
2022-12-03T11:29:56.570Z,10.70
2022-12-03T11:33:06.334Z,11.23
2022-12-03T11:36:11.941Z,10.70
2022-12-03T11:38:55.553Z,9.82
2022-12-03T11:41:29.405Z,10.13
2022-12-03T11:44:34.211Z,10.27
2022-12-03T11:47:13.312Z,9.88
2022-12-03T11:49:48.577Z,10.23
2022-12-03T11:52:29.480Z,10.15
2022-12-03T11:55:02.825Z,10.30
2022-12-03T11:57:37.159Z,10.30
2022-12-03T12:00:17.789Z,9.35
2022-12-03T12:02:45.730Z,9.40
2022-12-03T12:05:22.744Z,9.98
2022-12-03T12:07:50.796Z,9.85
2022-12-03T12:10:40.480Z,9.40
2022-12-03T12:15:54.799Z,9.70
2022-12-03T12:18:41.554Z,9.80
2022-12-03T12:21:41.964Z,10.68
2022-12-03T12:24:29.215Z,9.63
2022-12-03T12:26:57.706Z,9.07
2022-12-03T12:29:26.010Z,10.57
2022-12-03T12:32:02.563Z,9.02
2022-12-03T12:34:31.488Z,9.68
2022-12-03T12:37:00.874Z,9.93
2022-12-03T12:39:28.378Z,8.95
2022-12-03T12:41:55.930Z,9.85
2022-12-03T12:44:23.570Z,8.55
2022-12-03T12:46:53.156Z,9.38
2022-12-03T12:49:22.083Z,8.70
2022-12-03T12:51:51.077Z,9.87
2022-12-03T12:54:18.754Z,9.38
2022-12-03T12:56:49.645Z,9.55
2022-12-03T12:59:19.282Z,9.07
2022-12-03T13:01:48.514Z,9.38
2022-12-03T13:04:18.613Z,8.88
2022-12-03T13:06:48.907Z,9.18
2022-12-03T13:09:18.165Z,9.60
2022-12-03T13:11:47.590Z,9.02
2022-12-03T13:14:18.454Z,9.02
2022-12-03T13:16:46.471Z,9.73
2022-12-03T13:19:21.724Z,9.13
2022-12-03T13:21:52.754Z,9.57
2022-12-03T13:24:43.372Z,8.43
2022-12-03T13:27:22.960Z,8.55
2022-12-03T13:32:21.688Z,9.93
2022-12-03T13:34:49.934Z,9.02
2022-12-03T13:37:22.416Z,10.38
2022-12-03T13:39:52.114Z,9.30
2022-12-03T13:42:22.465Z,8.77
2022-12-03T13:44:50.333Z,8.93
2022-12-03T13:47:21.071Z,8.43
2022-12-03T13:49:51.928Z,8.18
2022-12-03T13:52:24.110Z,8.63
2022-12-03T13:54:53.460Z,8.70
2022-12-03T13:57:22.693Z,8.73
2022-12-03T13:59:50.152Z,8.77
2022-12-03T14:02:18.271Z,9.10
2022-12-03T14:04:45.909Z,8.88
2022-12-03T14:07:13.458Z,9.07
2022-12-03T14:09:43.388Z,9.07
2022-12-03T14:12:10.801Z,8.50
2022-12-03T14:14:38.339Z,8.85
2022-12-03T14:17:06.108Z,7.95
2022-12-03T14:19:33.708Z,8.88
2022-12-03T14:22:01.260Z,8.30
2022-12-03T14:24:28.984Z,8.00
2022-12-03T14:26:58.060Z,7.95
2022-12-03T14:29:25.538Z,9.23
2022-12-03T14:31:53.762Z,9.13
2022-12-03T14:34:21.498Z,8.63
2022-12-03T14:36:51.271Z,8.63
2022-12-03T14:39:19.081Z,8.95
2022-12-03T14:41:46.653Z,8.60
2022-12-03T14:44:15.618Z,8.80
2022-12-03T14:46:43.935Z,9.35
2022-12-03T14:49:11.513Z,8.80
2022-12-03T14:51:39.047Z,8.40
2022-12-03T14:54:06.606Z,9.77
2022-12-03T14:56:34.190Z,9.45
2022-12-03T14:59:01.878Z,7.47
2022-12-03T15:01:32.182Z,8.38
2022-12-03T15:03:59.709Z,8.40
2022-12-03T15:06:27.217Z,9.65
2022-12-03T15:08:55.493Z,8.30
2022-12-03T15:11:23.154Z,7.60
2022-12-03T15:13:50.638Z,7.88
2022-12-03T15:16:18.760Z,8.70
2022-12-03T15:18:47.689Z,8.43
2022-12-03T15:21:15.185Z,8.70
2022-12-03T15:23:42.644Z,7.97
2022-12-03T15:26:10.177Z,8.13
2022-12-03T15:28:37.745Z,7.97
2022-12-03T15:31:05.569Z,7.70
2022-12-03T15:33:33.095Z,7.43
2022-12-03T15:36:02.065Z,7.88
2022-12-03T15:38:29.584Z,9.75
2022-12-03T15:40:57.104Z,9.02
2022-12-03T15:43:24.821Z,9.15
2022-12-03T15:45:52.631Z,8.18
2022-12-03T15:48:20.146Z,8.07
2022-12-03T15:50:47.657Z,8.30
2022-12-03T15:53:16.996Z,8.25
2022-12-03T15:55:44.533Z,7.97
2022-12-03T15:58:12.027Z,8.45
2022-12-03T16:00:39.566Z,8.65
2022-12-03T16:03:07.117Z,7.25
2022-12-03T16:05:34.653Z,8.15
2022-12-03T16:08:02.384Z,8.75
2022-12-03T16:10:31.392Z,8.27
2022-12-03T16:12:58.834Z,8.23
2022-12-03T16:15:27.528Z,8.20
2022-12-03T16:17:55.098Z,9.07
2022-12-03T16:20:22.586Z,8.43
2022-12-03T16:22:50.198Z,8.70
2022-12-03T16:25:17.966Z,9.13
2022-12-03T16:27:47.117Z,41.65
2022-12-03T16:30:15.482Z,40.65
2022-12-03T16:32:43.107Z,24.73
2022-12-03T16:35:10.665Z,23.77
2022-12-03T16:37:38.165Z,15.80
2022-12-03T16:40:07.128Z,13.77
2022-12-03T16:42:35.581Z,13.82
2022-12-03T16:45:08.616Z,13.65
2022-12-03T16:47:36.295Z,13.30
2022-12-03T16:50:05.260Z,11.82
2022-12-03T16:52:33.145Z,12.63
2022-12-03T16:55:00.578Z,12.82
2022-12-03T16:57:33.387Z,11.77
2022-12-03T17:00:01.535Z,12.60
2022-12-03T17:02:30.766Z,11.15
2022-12-03T17:04:58.329Z,12.32
2022-12-03T17:07:25.869Z,11.40
2022-12-03T17:09:53.520Z,11.70
2022-12-03T17:12:21.253Z,12.60
2022-12-03T17:14:48.747Z,12.35
2022-12-03T17:17:16.342Z,12.20
2022-12-03T17:19:45.314Z,10.85
2022-12-03T17:22:12.911Z,10.18
2022-12-03T17:24:40.482Z,10.45
2022-12-03T17:27:08.067Z,11.05
2022-12-03T17:29:35.522Z,10.88
2022-12-03T17:32:03.757Z,9.15
2022-12-03T17:34:31.270Z,11.18
2022-12-03T17:37:00.221Z,10.18
2022-12-03T17:39:28.011Z,9.77
2022-12-03T17:41:55.597Z,9.85
2022-12-03T17:44:23.114Z,10.27
2022-12-03T17:46:51.204Z,9.30
2022-12-03T17:49:18.846Z,10.10
2022-12-03T17:51:46.434Z,8.68
2022-12-03T17:54:15.400Z,11.93
2022-12-03T17:56:42.901Z,9.63
2022-12-03T17:59:10.599Z,10.38
2022-12-03T18:01:38.409Z,10.65
2022-12-03T18:04:06.298Z,8.82
2022-12-03T18:06:34.277Z,10.02
2022-12-03T18:09:02.552Z,10.40
2022-12-03T18:11:31.886Z,10.48
2022-12-03T18:13:59.474Z,10.00
2022-12-03T18:16:29.261Z,9.55
2022-12-03T18:19:00.888Z,8.20
2022-12-03T18:21:32.374Z,8.95
2022-12-03T18:24:00.080Z,9.75
2022-12-03T18:26:28.161Z,9.20
2022-12-03T18:28:57.251Z,9.02
2022-12-03T18:31:24.979Z,9.13
2022-12-03T18:33:52.625Z,9.43
2022-12-03T18:36:23.191Z,10.45
2022-12-03T18:38:53.563Z,10.43
2022-12-03T18:41:23.504Z,8.73
2022-12-03T18:43:52.218Z,8.38
2022-12-03T18:49:09.878Z,9.07
2022-12-03T18:51:37.725Z,10.02
2022-12-03T18:54:11.769Z,8.65
2022-12-03T18:56:39.450Z,8.70
2022-12-03T18:59:07.097Z,9.00
2022-12-03T19:01:36.879Z,8.35
2022-12-03T19:04:04.557Z,8.60
2022-12-03T19:06:32.614Z,8.75
2022-12-03T19:09:00.185Z,8.10
2022-12-03T19:11:28.003Z,8.63
2022-12-03T19:13:55.612Z,8.32
2022-12-03T19:16:23.900Z,8.27
2022-12-03T19:18:53.045Z,8.30
2022-12-03T19:21:20.689Z,8.82
2022-12-03T19:24:22.185Z,9.07
2022-12-03T19:26:36.341Z,10.48
2022-12-03T19:29:04.809Z,9.20
2022-12-03T19:31:32.538Z,9.38
2022-12-03T19:34:01.851Z,10.30
2022-12-03T19:36:30.794Z,11.80
2022-12-03T19:38:59.943Z,14.65
2022-12-03T19:41:29.225Z,10.48
2022-12-03T19:43:57.831Z,11.35
2022-12-03T19:46:27.747Z,11.15
2022-12-03T19:48:55.562Z,11.02
2022-12-03T19:51:34.573Z,11.68
2022-12-03T19:54:03.731Z,10.70
2022-12-03T19:56:32.079Z,11.15
2022-12-03T19:58:59.885Z,12.85
2022-12-03T20:01:29.052Z,11.38
2022-12-03T20:03:58.920Z,14.68
2022-12-03T20:06:29.493Z,22.10
2022-12-03T20:08:58.596Z,26.85
2022-12-03T20:11:28.133Z,19.25
2022-12-03T20:13:58.260Z,15.02
2022-12-03T20:16:27.434Z,14.18
2022-12-03T20:18:59.091Z,15.68
2022-12-03T20:21:30.654Z,27.00
2022-12-03T20:23:59.208Z,32.75
2022-12-03T20:26:27.352Z,19.05
2022-12-03T20:28:55.992Z,15.55
2022-12-03T20:31:26.011Z,14.23
2022-12-03T20:33:56.386Z,13.32
2022-12-03T20:36:24.887Z,12.15
2022-12-03T20:38:56.322Z,11.90
2022-12-03T20:41:23.945Z,12.20
2022-12-03T20:43:51.800Z,12.70
2022-12-03T20:46:21.225Z,12.10
2022-12-03T20:48:49.235Z,11.25
2022-12-03T20:51:18.689Z,11.05
2022-12-03T20:53:46.704Z,11.95
2022-12-03T20:56:18.780Z,11.63
2022-12-03T20:58:46.826Z,11.07
2022-12-03T21:01:16.717Z,10.18
2022-12-03T21:03:44.757Z,10.30
2022-12-03T21:06:12.417Z,10.07
2022-12-03T21:08:42.155Z,10.70
2022-12-03T21:11:11.862Z,9.65
2022-12-03T21:13:41.044Z,10.95
2022-12-03T21:16:11.040Z,9.65
2022-12-03T21:18:39.123Z,9.32
2022-12-03T21:21:07.221Z,10.52
2022-12-03T21:23:35.379Z,9.70
2022-12-03T21:26:05.363Z,9.45
2022-12-03T21:28:32.884Z,9.23
2022-12-03T21:31:03.803Z,8.20
2022-12-03T21:33:31.863Z,9.02
2022-12-03T21:36:00.167Z,8.43
2022-12-03T21:38:29.601Z,8.93
2022-12-03T21:40:57.842Z,9.20
2022-12-03T21:43:26.068Z,8.25
2022-12-03T21:45:53.653Z,9.13
2022-12-03T21:48:22.975Z,8.95
2022-12-03T21:50:58.879Z,8.55
2022-12-03T21:53:26.542Z,8.27
2022-12-03T21:55:54.251Z,9.15
2022-12-03T21:58:22.009Z,8.18
2022-12-03T22:00:49.457Z,9.48
2022-12-03T22:03:17.054Z,7.95
2022-12-03T22:05:46.731Z,7.97
2022-12-03T22:08:14.544Z,8.25
2022-12-03T22:10:42.017Z,8.30
2022-12-03T22:13:09.538Z,8.63
2022-12-03T22:15:39.104Z,9.13
2022-12-03T22:20:34.879Z,8.25
2022-12-03T22:23:03.819Z,8.40
2022-12-03T22:25:31.279Z,8.00
2022-12-03T22:27:58.890Z,8.70
2022-12-03T22:30:26.317Z,9.90
2022-12-03T22:32:53.837Z,8.18
2022-12-03T22:35:21.493Z,8.05
2022-12-03T22:37:48.963Z,7.85
2022-12-03T22:40:18.574Z,7.78
2022-12-03T22:42:50.776Z,8.45
2022-12-03T22:45:18.683Z,8.40
2022-12-03T22:47:46.450Z,8.40
2022-12-03T22:50:13.938Z,7.35
2022-12-03T22:52:41.438Z,8.93
2022-12-03T22:55:10.165Z,8.32
2022-12-03T22:57:39.033Z,8.10
2022-12-03T23:00:09.609Z,7.90
2022-12-03T23:02:37.207Z,7.38
2022-12-03T23:05:05.319Z,7.93
2022-12-03T23:07:32.761Z,8.05
2022-12-03T23:10:00.253Z,8.27
2022-12-03T23:12:27.676Z,8.07
2022-12-03T23:14:57.433Z,8.30
2022-12-03T23:17:24.976Z,9.00
2022-12-03T23:19:52.696Z,8.52
2022-12-03T23:22:20.569Z,7.65
2022-12-03T23:24:48.079Z,7.40
2022-12-03T23:27:15.539Z,7.68
2022-12-03T23:29:43.455Z,8.45
2022-12-03T23:32:12.453Z,8.18
2022-12-03T23:34:40.041Z,6.90
2022-12-03T23:37:07.543Z,7.95
2022-12-03T23:39:35.199Z,7.97
2022-12-03T23:42:02.653Z,8.00
2022-12-03T23:44:30.185Z,8.05
2022-12-03T23:46:57.768Z,7.53
2022-12-03T23:49:27.889Z,8.07
2022-12-03T23:51:55.410Z,7.45
2022-12-03T23:54:23.210Z,8.48
2022-12-03T23:56:50.666Z,8.15
2022-12-03T23:59:18.142Z,8.18
